sensor_id;sensor_type;location;lat;lon;timestamp;temperature;humidity
9167;DHT22;4618;48.818;9.088;2023-11-18T00:01:05;5.20;37.60
9167;DHT22;4618;48.818;9.088;2023-11-18T00:03:31;5.20;67.30
9167;DHT22;4618;48.818;9.088;2023-11-18T00:05:57;5.10;15.00
9167;DHT22;4618;48.818;9.088;2023-11-18T00:08:22;5.20;49.50
9167;DHT22;4618;48.818;9.088;2023-11-18T00:10:48;5.20;3.70
9167;DHT22;4618;48.818;9.088;2023-11-18T00:13:14;5.20;96.40
9167;DHT22;4618;48.818;9.088;2023-11-18T00:15:39;5.20;99.90
9167;DHT22;4618;48.818;9.088;2023-11-18T00:18:05;5.20;99.90
9167;DHT22;4618;48.818;9.088;2023-11-18T00:20:30;5.20;99.90
9167;DHT22;4618;48.818;9.088;2023-11-18T00:22:57;5.20;99.90
9167;DHT22;4618;48.818;9.088;2023-11-18T00:25:22;5.10;99.90
9167;DHT22;4618;48.818;9.088;2023-11-18T00:27:48;5.10;99.90
9167;DHT22;4618;48.818;9.088;2023-11-18T00:30:13;5.10;99.90
9167;DHT22;4618;48.818;9.088;2023-11-18T00:32:39;5.10;99.90
9167;DHT22;4618;48.818;9.088;2023-11-18T00:35:05;5.20;99.90
9167;DHT22;4618;48.818;9.088;2023-11-18T00:37:32;5.20;99.90
9167;DHT22;4618;48.818;9.088;2023-11-18T00:39:58;5.20;99.90
9167;DHT22;4618;48.818;9.088;2023-11-18T00:42:24;5.20;99.90
9167;DHT22;4618;48.818;9.088;2023-11-18T00:44:49;5.20;99.90
9167;DHT22;4618;48.818;9.088;2023-11-18T00:47:15;5.20;99.90
9167;DHT22;4618;48.818;9.088;2023-11-18T00:49:41;5.20;99.90
9167;DHT22;4618;48.818;9.088;2023-11-18T00:52:06;5.20;99.90
9167;DHT22;4618;48.818;9.088;2023-11-18T00:54:32;5.20;99.90
9167;DHT22;4618;48.818;9.088;2023-11-18T00:56:58;5.30;99.90
9167;DHT22;4618;48.818;9.088;2023-11-18T00:59:23;5.30;99.90
9167;DHT22;4618;48.818;9.088;2023-11-18T01:01:49;5.30;99.90
9167;DHT22;4618;48.818;9.088;2023-11-18T01:04:15;5.30;99.90
9167;DHT22;4618;48.818;9.088;2023-11-18T01:06:42;5.20;99.90
9167;DHT22;4618;48.818;9.088;2023-11-18T01:09:08;5.20;99.90
9167;DHT22;4618;48.818;9.088;2023-11-18T01:11:35;5.20;99.90
9167;DHT22;4618;48.818;9.088;2023-11-18T01:14:01;5.20;99.90
9167;DHT22;4618;48.818;9.088;2023-11-18T01:16:27;5.10;99.90
9167;DHT22;4618;48.818;9.088;2023-11-18T01:18:54;5.10;99.90
9167;DHT22;4618;48.818;9.088;2023-11-18T01:21:20;5.10;99.90
9167;DHT22;4618;48.818;9.088;2023-11-18T01:23:45;5.10;99.90
9167;DHT22;4618;48.818;9.088;2023-11-18T01:26:12;5.10;99.90
9167;DHT22;4618;48.818;9.088;2023-11-18T01:28:40;5.20;99.90
9167;DHT22;4618;48.818;9.088;2023-11-18T01:31:11;5.20;99.90
9167;DHT22;4618;48.818;9.088;2023-11-18T01:33:37;5.20;99.90
9167;DHT22;4618;48.818;9.088;2023-11-18T01:36:06;5.30;99.90
9167;DHT22;4618;48.818;9.088;2023-11-18T01:38:34;5.20;99.90
9167;DHT22;4618;48.818;9.088;2023-11-18T01:41:00;5.30;99.90
9167;DHT22;4618;48.818;9.088;2023-11-18T01:43:26;5.30;99.90
9167;DHT22;4618;48.818;9.088;2023-11-18T01:45:52;5.30;99.90
9167;DHT22;4618;48.818;9.088;2023-11-18T01:48:21;5.30;99.90
9167;DHT22;4618;48.818;9.088;2023-11-18T01:50:48;5.30;99.90
9167;DHT22;4618;48.818;9.088;2023-11-18T01:53:14;5.30;99.90
9167;DHT22;4618;48.818;9.088;2023-11-18T01:55:40;5.40;99.90
9167;DHT22;4618;48.818;9.088;2023-11-18T01:58:06;5.30;93.00
9167;DHT22;4618;48.818;9.088;2023-11-18T02:00:41;5.30;12.90
9167;DHT22;4618;48.818;9.088;2023-11-18T02:03:07;5.40;1.00
9167;DHT22;4618;48.818;9.088;2023-11-18T02:05:35;5.40;1.00
9167;DHT22;4618;48.818;9.088;2023-11-18T02:08:02;5.40;1.00
9167;DHT22;4618;48.818;9.088;2023-11-18T02:10:31;5.40;1.00
9167;DHT22;4618;48.818;9.088;2023-11-18T02:13:29;5.20;1.00
9167;DHT22;4618;48.818;9.088;2023-11-18T02:15:56;5.20;69.60
9167;DHT22;4618;48.818;9.088;2023-11-18T02:18:28;5.20;99.90
9167;DHT22;4618;48.818;9.088;2023-11-18T02:20:57;5.20;99.90
9167;DHT22;4618;48.818;9.088;2023-11-18T02:23:24;5.20;99.90
9167;DHT22;4618;48.818;9.088;2023-11-18T02:25:51;5.20;99.90
9167;DHT22;4618;48.818;9.088;2023-11-18T02:28:18;5.20;99.90
9167;DHT22;4618;48.818;9.088;2023-11-18T02:30:44;5.20;99.90
9167;DHT22;4618;48.818;9.088;2023-11-18T02:33:18;5.20;99.90
9167;DHT22;4618;48.818;9.088;2023-11-18T02:35:54;5.20;99.90
9167;DHT22;4618;48.818;9.088;2023-11-18T02:38:30;5.00;99.90
9167;DHT22;4618;48.818;9.088;2023-11-18T02:40:59;4.90;99.90
9167;DHT22;4618;48.818;9.088;2023-11-18T02:43:30;4.90;99.90
9167;DHT22;4618;48.818;9.088;2023-11-18T02:45:57;4.80;99.90
9167;DHT22;4618;48.818;9.088;2023-11-18T02:48:23;4.70;99.90
9167;DHT22;4618;48.818;9.088;2023-11-18T02:50:51;4.60;99.90
9167;DHT22;4618;48.818;9.088;2023-11-18T02:53:17;4.60;99.90
9167;DHT22;4618;48.818;9.088;2023-11-18T02:55:43;4.60;99.90
9167;DHT22;4618;48.818;9.088;2023-11-18T02:58:08;4.60;99.90
9167;DHT22;4618;48.818;9.088;2023-11-18T03:00:34;4.60;99.90
9167;DHT22;4618;48.818;9.088;2023-11-18T03:03:00;4.50;99.90
9167;DHT22;4618;48.818;9.088;2023-11-18T03:05:25;4.40;99.90
9167;DHT22;4618;48.818;9.088;2023-11-18T03:07:52;4.30;99.90
9167;DHT22;4618;48.818;9.088;2023-11-18T03:10:20;4.10;99.90
9167;DHT22;4618;48.818;9.088;2023-11-18T03:12:50;4.10;99.90
9167;DHT22;4618;48.818;9.088;2023-11-18T03:15:18;4.10;99.90
9167;DHT22;4618;48.818;9.088;2023-11-18T03:17:51;4.00;99.90
9167;DHT22;4618;48.818;9.088;2023-11-18T03:20:18;3.90;99.90
9167;DHT22;4618;48.818;9.088;2023-11-18T03:22:44;3.90;99.90
9167;DHT22;4618;48.818;9.088;2023-11-18T03:25:13;4.00;1.00
9167;DHT22;4618;48.818;9.088;2023-11-18T03:27:39;4.20;1.00
9167;DHT22;4618;48.818;9.088;2023-11-18T03:30:06;4.20;1.00
9167;DHT22;4618;48.818;9.088;2023-11-18T03:32:36;4.30;1.00
9167;DHT22;4618;48.818;9.088;2023-11-18T03:35:03;4.30;1.00
9167;DHT22;4618;48.818;9.088;2023-11-18T03:37:29;4.30;1.00
9167;DHT22;4618;48.818;9.088;2023-11-18T03:39:56;4.40;1.00
9167;DHT22;4618;48.818;9.088;2023-11-18T03:42:22;4.40;1.00
9167;DHT22;4618;48.818;9.088;2023-11-18T03:44:48;4.40;1.00
9167;DHT22;4618;48.818;9.088;2023-11-18T03:47:14;4.40;1.00
9167;DHT22;4618;48.818;9.088;2023-11-18T03:49:40;4.50;99.90
9167;DHT22;4618;48.818;9.088;2023-11-18T03:52:06;4.50;99.90
9167;DHT22;4618;48.818;9.088;2023-11-18T03:54:32;4.20;99.90
9167;DHT22;4618;48.818;9.088;2023-11-18T03:56:57;4.20;99.90
9167;DHT22;4618;48.818;9.088;2023-11-18T03:59:25;4.10;99.90
9167;DHT22;4618;48.818;9.088;2023-11-18T04:01:50;4.20;99.90
9167;DHT22;4618;48.818;9.088;2023-11-18T04:04:17;4.20;99.90
9167;DHT22;4618;48.818;9.088;2023-11-18T04:06:43;4.10;99.90
9167;DHT22;4618;48.818;9.088;2023-11-18T04:09:08;4.10;99.90
9167;DHT22;4618;48.818;9.088;2023-11-18T04:11:38;4.20;99.90
9167;DHT22;4618;48.818;9.088;2023-11-18T04:14:04;4.00;99.90
9167;DHT22;4618;48.818;9.088;2023-11-18T04:16:29;4.00;99.90
9167;DHT22;4618;48.818;9.088;2023-11-18T04:18:55;4.10;1.00
9167;DHT22;4618;48.818;9.088;2023-11-18T04:21:21;4.10;1.00
9167;DHT22;4618;48.818;9.088;2023-11-18T04:23:47;4.00;1.00
9167;DHT22;4618;48.818;9.088;2023-11-18T04:26:13;4.00;1.00
9167;DHT22;4618;48.818;9.088;2023-11-18T04:28:38;4.00;1.00
9167;DHT22;4618;48.818;9.088;2023-11-18T04:31:04;4.10;99.90
9167;DHT22;4618;48.818;9.088;2023-11-18T04:33:30;4.00;1.00
9167;DHT22;4618;48.818;9.088;2023-11-18T04:35:57;3.90;1.00
9167;DHT22;4618;48.818;9.088;2023-11-18T04:38:23;4.00;1.00
9167;DHT22;4618;48.818;9.088;2023-11-18T04:40:48;3.90;1.00
9167;DHT22;4618;48.818;9.088;2023-11-18T04:43:14;3.80;1.00
9167;DHT22;4618;48.818;9.088;2023-11-18T04:45:42;3.80;1.00
9167;DHT22;4618;48.818;9.088;2023-11-18T04:48:07;3.70;1.00
9167;DHT22;4618;48.818;9.088;2023-11-18T04:50:33;3.70;1.00
9167;DHT22;4618;48.818;9.088;2023-11-18T04:52:59;3.60;1.00
9167;DHT22;4618;48.818;9.088;2023-11-18T04:55:24;3.40;99.90
9167;DHT22;4618;48.818;9.088;2023-11-18T04:57:52;3.20;99.90
9167;DHT22;4618;48.818;9.088;2023-11-18T05:00:17;3.30;1.00
9167;DHT22;4618;48.818;9.088;2023-11-18T05:02:45;3.20;1.00
9167;DHT22;4618;48.818;9.088;2023-11-18T05:05:16;3.30;1.00
9167;DHT22;4618;48.818;9.088;2023-11-18T05:07:42;3.20;1.00
9167;DHT22;4618;48.818;9.088;2023-11-18T05:10:09;3.20;1.00
9167;DHT22;4618;48.818;9.088;2023-11-18T05:12:36;3.10;1.00
9167;DHT22;4618;48.818;9.088;2023-11-18T05:15:01;3.00;1.00
9167;DHT22;4618;48.818;9.088;2023-11-18T05:17:30;2.80;1.00
9167;DHT22;4618;48.818;9.088;2023-11-18T05:19:55;2.90;1.00
9167;DHT22;4618;48.818;9.088;2023-11-18T05:22:21;2.80;1.00
9167;DHT22;4618;48.818;9.088;2023-11-18T05:24:47;2.90;1.00
9167;DHT22;4618;48.818;9.088;2023-11-18T05:27:14;2.90;1.00
9167;DHT22;4618;48.818;9.088;2023-11-18T05:29:40;2.90;1.00
9167;DHT22;4618;48.818;9.088;2023-11-18T05:32:10;3.00;1.00
9167;DHT22;4618;48.818;9.088;2023-11-18T05:34:36;3.00;1.00
9167;DHT22;4618;48.818;9.088;2023-11-18T05:37:01;2.90;1.00
9167;DHT22;4618;48.818;9.088;2023-11-18T05:39:27;2.90;1.00
9167;DHT22;4618;48.818;9.088;2023-11-18T05:41:59;2.90;1.00
9167;DHT22;4618;48.818;9.088;2023-11-18T05:44:25;2.90;1.00
9167;DHT22;4618;48.818;9.088;2023-11-18T05:46:59;3.10;1.00
9167;DHT22;4618;48.818;9.088;2023-11-18T05:49:25;2.80;1.00
9167;DHT22;4618;48.818;9.088;2023-11-18T05:51:51;2.80;1.00
9167;DHT22;4618;48.818;9.088;2023-11-18T05:54:17;2.90;1.00
9167;DHT22;4618;48.818;9.088;2023-11-18T05:56:43;2.80;99.90
9167;DHT22;4618;48.818;9.088;2023-11-18T05:59:09;2.70;1.00
9167;DHT22;4618;48.818;9.088;2023-11-18T06:01:36;2.60;1.00
9167;DHT22;4618;48.818;9.088;2023-11-18T06:04:05;2.80;1.00
9167;DHT22;4618;48.818;9.088;2023-11-18T06:06:33;2.60;1.00
9167;DHT22;4618;48.818;9.088;2023-11-18T06:08:59;2.70;1.00
9167;DHT22;4618;48.818;9.088;2023-11-18T06:11:30;2.60;99.90
9167;DHT22;4618;48.818;9.088;2023-11-18T06:13:57;2.80;1.00
9167;DHT22;4618;48.818;9.088;2023-11-18T06:16:24;3.00;1.00
9167;DHT22;4618;48.818;9.088;2023-11-18T06:18:52;2.90;99.90
9167;DHT22;4618;48.818;9.088;2023-11-18T06:21:23;2.70;99.90
9167;DHT22;4618;48.818;9.088;2023-11-18T06:23:59;2.80;99.90
9167;DHT22;4618;48.818;9.088;2023-11-18T06:26:25;2.90;99.90
9167;DHT22;4618;48.818;9.088;2023-11-18T06:28:53;2.70;1.00
9167;DHT22;4618;48.818;9.088;2023-11-18T06:31:19;2.80;99.90
9167;DHT22;4618;48.818;9.088;2023-11-18T06:33:46;2.50;99.90
9167;DHT22;4618;48.818;9.088;2023-11-18T06:36:16;2.50;1.00
9167;DHT22;4618;48.818;9.088;2023-11-18T06:38:42;2.60;99.90
9167;DHT22;4618;48.818;9.088;2023-11-18T06:41:09;2.40;99.90
9167;DHT22;4618;48.818;9.088;2023-11-18T06:43:38;2.50;1.00
9167;DHT22;4618;48.818;9.088;2023-11-18T06:46:26;2.30;99.90
9167;DHT22;4618;48.818;9.088;2023-11-18T06:48:54;2.50;99.90
9167;DHT22;4618;48.818;9.088;2023-11-18T06:51:23;2.60;99.90
9167;DHT22;4618;48.818;9.088;2023-11-18T06:53:50;2.60;99.90
9167;DHT22;4618;48.818;9.088;2023-11-18T06:56:17;3.00;99.90
9167;DHT22;4618;48.818;9.088;2023-11-18T06:58:42;3.10;99.90
9167;DHT22;4618;48.818;9.088;2023-11-18T07:01:09;3.10;99.90
9167;DHT22;4618;48.818;9.088;2023-11-18T07:03:35;3.20;1.00
9167;DHT22;4618;48.818;9.088;2023-11-18T07:06:04;3.50;1.00
9167;DHT22;4618;48.818;9.088;2023-11-18T07:08:31;3.40;1.00
9167;DHT22;4618;48.818;9.088;2023-11-18T07:10:58;3.60;1.00
9167;DHT22;4618;48.818;9.088;2023-11-18T07:13:24;3.70;1.00
9167;DHT22;4618;48.818;9.088;2023-11-18T07:15:50;3.80;1.00
9167;DHT22;4618;48.818;9.088;2023-11-18T07:18:16;3.90;1.00
9167;DHT22;4618;48.818;9.088;2023-11-18T07:20:43;4.00;1.00
9167;DHT22;4618;48.818;9.088;2023-11-18T07:23:08;3.90;1.00
9167;DHT22;4618;48.818;9.088;2023-11-18T07:25:34;4.10;1.00
9167;DHT22;4618;48.818;9.088;2023-11-18T07:28:00;4.20;1.00
9167;DHT22;4618;48.818;9.088;2023-11-18T07:30:26;4.10;1.00
9167;DHT22;4618;48.818;9.088;2023-11-18T07:32:51;4.20;99.90
9167;DHT22;4618;48.818;9.088;2023-11-18T07:35:17;4.40;99.90
9167;DHT22;4618;48.818;9.088;2023-11-18T07:37:43;4.40;99.90
9167;DHT22;4618;48.818;9.088;2023-11-18T07:40:09;4.40;99.90
9167;DHT22;4618;48.818;9.088;2023-11-18T07:42:37;4.50;99.90
9167;DHT22;4618;48.818;9.088;2023-11-18T07:45:04;4.60;95.90
9167;DHT22;4618;48.818;9.088;2023-11-18T07:47:43;4.70;44.90
9167;DHT22;4618;48.818;9.088;2023-11-18T07:50:09;4.70;63.50
9167;DHT22;4618;48.818;9.088;2023-11-18T07:52:38;4.70;98.40
9167;DHT22;4618;48.818;9.088;2023-11-18T07:55:04;4.80;99.90
9167;DHT22;4618;48.818;9.088;2023-11-18T07:57:30;4.90;68.20
9167;DHT22;4618;48.818;9.088;2023-11-18T07:59:55;5.00;1.00
9167;DHT22;4618;48.818;9.088;2023-11-18T08:02:21;5.10;1.00
9167;DHT22;4618;48.818;9.088;2023-11-18T08:04:47;5.20;99.90
9167;DHT22;4618;48.818;9.088;2023-11-18T08:07:12;5.20;99.90
9167;DHT22;4618;48.818;9.088;2023-11-18T08:09:38;5.30;99.90
9167;DHT22;4618;48.818;9.088;2023-11-18T08:12:05;5.50;1.00
9167;DHT22;4618;48.818;9.088;2023-11-18T08:14:34;5.60;1.00
9167;DHT22;4618;48.818;9.088;2023-11-18T08:17:00;5.60;1.00
9167;DHT22;4618;48.818;9.088;2023-11-18T08:19:25;5.70;1.00
9167;DHT22;4618;48.818;9.088;2023-11-18T08:21:51;5.80;99.90
9167;DHT22;4618;48.818;9.088;2023-11-18T08:24:17;5.80;77.50
9167;DHT22;4618;48.818;9.088;2023-11-18T08:26:43;5.90;1.00
9167;DHT22;4618;48.818;9.088;2023-11-18T08:29:08;5.90;1.00
9167;DHT22;4618;48.818;9.088;2023-11-18T08:31:34;5.90;1.00
9167;DHT22;4618;48.818;9.088;2023-11-18T08:34:00;5.90;1.00
9167;DHT22;4618;48.818;9.088;2023-11-18T08:36:26;6.00;1.00
9167;DHT22;4618;48.818;9.088;2023-11-18T08:38:52;6.00;1.00
9167;DHT22;4618;48.818;9.088;2023-11-18T08:41:18;6.00;1.00
9167;DHT22;4618;48.818;9.088;2023-11-18T08:43:45;6.00;1.00
9167;DHT22;4618;48.818;9.088;2023-11-18T08:46:12;6.10;1.00
9167;DHT22;4618;48.818;9.088;2023-11-18T08:48:39;6.10;1.00
9167;DHT22;4618;48.818;9.088;2023-11-18T08:51:05;6.10;1.00
9167;DHT22;4618;48.818;9.088;2023-11-18T08:53:33;6.20;1.00
9167;DHT22;4618;48.818;9.088;2023-11-18T08:56:08;6.20;1.00
9167;DHT22;4618;48.818;9.088;2023-11-18T08:58:40;6.40;1.00
9167;DHT22;4618;48.818;9.088;2023-11-18T09:01:06;6.70;1.00
9167;DHT22;4618;48.818;9.088;2023-11-18T09:03:38;6.90;99.90
9167;DHT22;4618;48.818;9.088;2023-11-18T09:06:09;7.30;99.90
9167;DHT22;4618;48.818;9.088;2023-11-18T09:08:45;7.60;7.20
9167;DHT22;4618;48.818;9.088;2023-11-18T09:11:13;7.90;1.00
9167;DHT22;4618;48.818;9.088;2023-11-18T09:13:46;8.10;1.00
9167;DHT22;4618;48.818;9.088;2023-11-18T09:16:15;8.10;99.90
9167;DHT22;4618;48.818;9.088;2023-11-18T09:18:43;8.00;99.90
9167;DHT22;4618;48.818;9.088;2023-11-18T09:21:11;8.00;1.00
9167;DHT22;4618;48.818;9.088;2023-11-18T09:23:41;8.20;1.00
9167;DHT22;4618;48.818;9.088;2023-11-18T09:26:08;8.20;1.00
9167;DHT22;4618;48.818;9.088;2023-11-18T09:28:34;8.20;99.90
9167;DHT22;4618;48.818;9.088;2023-11-18T09:31:04;8.20;99.90
9167;DHT22;4618;48.818;9.088;2023-11-18T09:33:31;8.40;99.90
9167;DHT22;4618;48.818;9.088;2023-11-18T09:36:02;8.20;99.90
9167;DHT22;4618;48.818;9.088;2023-11-18T09:38:31;8.20;1.00
9167;DHT22;4618;48.818;9.088;2023-11-18T09:40:59;8.30;99.90
9167;DHT22;4618;48.818;9.088;2023-11-18T09:43:29;8.50;99.90
9167;DHT22;4618;48.818;9.088;2023-11-18T09:46:03;8.40;99.90
9167;DHT22;4618;48.818;9.088;2023-11-18T09:48:29;8.20;1.00
9167;DHT22;4618;48.818;9.088;2023-11-18T09:51:04;8.20;99.90
9167;DHT22;4618;48.818;9.088;2023-11-18T09:53:32;8.10;99.90
9167;DHT22;4618;48.818;9.088;2023-11-18T09:56:12;8.00;1.00
9167;DHT22;4618;48.818;9.088;2023-11-18T09:59:01;8.10;99.90
9167;DHT22;4618;48.818;9.088;2023-11-18T10:01:35;8.30;99.90
9167;DHT22;4618;48.818;9.088;2023-11-18T10:04:04;8.10;99.90
9167;DHT22;4618;48.818;9.088;2023-11-18T10:06:34;8.30;1.00
9167;DHT22;4618;48.818;9.088;2023-11-18T10:09:02;8.90;99.90
9167;DHT22;4618;48.818;9.088;2023-11-18T10:11:41;9.20;1.00
9167;DHT22;4618;48.818;9.088;2023-11-18T10:14:07;9.20;1.00
9167;DHT22;4618;48.818;9.088;2023-11-18T10:16:34;9.20;1.00
9167;DHT22;4618;48.818;9.088;2023-11-18T10:19:01;9.10;1.00
9167;DHT22;4618;48.818;9.088;2023-11-18T10:21:36;9.10;1.00
9167;DHT22;4618;48.818;9.088;2023-11-18T10:24:06;9.30;1.00
9167;DHT22;4618;48.818;9.088;2023-11-18T10:26:42;9.40;1.00
9167;DHT22;4618;48.818;9.088;2023-11-18T10:29:10;9.60;99.90
9167;DHT22;4618;48.818;9.088;2023-11-18T10:31:41;9.60;99.90
9167;DHT22;4618;48.818;9.088;2023-11-18T10:34:12;9.70;99.90
9167;DHT22;4618;48.818;9.088;2023-11-18T10:36:41;9.90;99.90
9167;DHT22;4618;48.818;9.088;2023-11-18T10:39:11;9.80;1.00
9167;DHT22;4618;48.818;9.088;2023-11-18T10:41:42;9.60;1.00
9167;DHT22;4618;48.818;9.088;2023-11-18T10:44:09;9.30;1.00
9167;DHT22;4618;48.818;9.088;2023-11-18T10:46:53;9.20;1.00
9167;DHT22;4618;48.818;9.088;2023-11-18T10:49:22;9.30;99.90
9167;DHT22;4618;48.818;9.088;2023-11-18T10:51:50;9.60;99.90
9167;DHT22;4618;48.818;9.088;2023-11-18T10:54:16;9.90;1.00
9167;DHT22;4618;48.818;9.088;2023-11-18T10:56:52;10.00;1.00
9167;DHT22;4618;48.818;9.088;2023-11-18T10:59:32;9.90;1.00
9167;DHT22;4618;48.818;9.088;2023-11-18T11:01:58;9.90;1.00
9167;DHT22;4618;48.818;9.088;2023-11-18T11:04:24;9.90;1.00
9167;DHT22;4618;48.818;9.088;2023-11-18T11:06:50;9.90;1.00
9167;DHT22;4618;48.818;9.088;2023-11-18T11:09:23;9.80;1.00
9167;DHT22;4618;48.818;9.088;2023-11-18T11:12:10;9.90;1.00
9167;DHT22;4618;48.818;9.088;2023-11-18T11:14:46;10.10;99.90
9167;DHT22;4618;48.818;9.088;2023-11-18T11:17:17;10.20;99.90
9167;DHT22;4618;48.818;9.088;2023-11-18T11:20:00;10.20;99.90
9167;DHT22;4618;48.818;9.088;2023-11-18T11:22:38;10.30;99.90
9167;DHT22;4618;48.818;9.088;2023-11-18T11:25:26;10.40;99.90
9167;DHT22;4618;48.818;9.088;2023-11-18T11:28:15;10.50;99.90
9167;DHT22;4618;48.818;9.088;2023-11-18T11:33:54;9.90;99.90
9167;DHT22;4618;48.818;9.088;2023-11-18T11:36:21;9.90;99.90
9167;DHT22;4618;48.818;9.088;2023-11-18T11:38:53;10.00;99.90
9167;DHT22;4618;48.818;9.088;2023-11-18T11:41:21;10.00;99.90
9167;DHT22;4618;48.818;9.088;2023-11-18T11:43:52;9.50;99.90
9167;DHT22;4618;48.818;9.088;2023-11-18T11:46:27;9.30;1.00
9167;DHT22;4618;48.818;9.088;2023-11-18T11:49:00;9.20;1.00
9167;DHT22;4618;48.818;9.088;2023-11-18T11:54:40;9.10;1.00
9167;DHT22;4618;48.818;9.088;2023-11-18T11:57:08;9.10;1.00
9167;DHT22;4618;48.818;9.088;2023-11-18T12:02:13;9.30;1.00
9167;DHT22;4618;48.818;9.088;2023-11-18T12:04:44;9.50;1.00
9167;DHT22;4618;48.818;9.088;2023-11-18T12:07:10;9.40;99.90
9167;DHT22;4618;48.818;9.088;2023-11-18T12:09:36;9.20;1.00
9167;DHT22;4618;48.818;9.088;2023-11-18T12:12:05;9.10;1.00
9167;DHT22;4618;48.818;9.088;2023-11-18T12:14:51;8.90;1.00
9167;DHT22;4618;48.818;9.088;2023-11-18T12:17:18;9.00;1.00
9167;DHT22;4618;48.818;9.088;2023-11-18T12:19:48;9.10;1.00
9167;DHT22;4618;48.818;9.088;2023-11-18T12:22:19;9.20;1.00
9167;DHT22;4618;48.818;9.088;2023-11-18T12:33:05;9.10;1.00
9167;DHT22;4618;48.818;9.088;2023-11-18T12:40:53;8.90;99.90
9167;DHT22;4618;48.818;9.088;2023-11-18T12:43:47;8.90;1.00
9167;DHT22;4618;48.818;9.088;2023-11-18T12:46:32;8.80;1.00
9167;DHT22;4618;48.818;9.088;2023-11-18T12:49:14;8.70;99.90
9167;DHT22;4618;48.818;9.088;2023-11-18T12:51:40;8.50;99.90
9167;DHT22;4618;48.818;9.088;2023-11-18T12:54:09;8.40;1.00
9167;DHT22;4618;48.818;9.088;2023-11-18T12:56:37;8.50;1.00
9167;DHT22;4618;48.818;9.088;2023-11-18T12:59:04;8.60;1.00
9167;DHT22;4618;48.818;9.088;2023-11-18T13:01:32;8.50;1.00
9167;DHT22;4618;48.818;9.088;2023-11-18T13:04:02;8.40;1.00
9167;DHT22;4618;48.818;9.088;2023-11-18T13:06:28;8.40;1.00
9167;DHT22;4618;48.818;9.088;2023-11-18T13:08:54;8.40;1.00
9167;DHT22;4618;48.818;9.088;2023-11-18T13:11:22;8.60;1.00
9167;DHT22;4618;48.818;9.088;2023-11-18T13:13:51;8.70;1.00
9167;DHT22;4618;48.818;9.088;2023-11-18T13:16:17;8.60;1.00
9167;DHT22;4618;48.818;9.088;2023-11-18T13:18:48;8.70;1.00
9167;DHT22;4618;48.818;9.088;2023-11-18T13:21:19;8.50;1.00
9167;DHT22;4618;48.818;9.088;2023-11-18T13:23:46;8.30;1.00
9167;DHT22;4618;48.818;9.088;2023-11-18T13:26:13;8.20;77.30
9167;DHT22;4618;48.818;9.088;2023-11-18T13:28:39;8.00;99.90
9167;DHT22;4618;48.818;9.088;2023-11-18T13:31:06;8.00;99.90
9167;DHT22;4618;48.818;9.088;2023-11-18T13:33:38;8.00;99.90
9167;DHT22;4618;48.818;9.088;2023-11-18T13:36:04;7.90;99.90
9167;DHT22;4618;48.818;9.088;2023-11-18T13:38:31;8.00;99.90
9167;DHT22;4618;48.818;9.088;2023-11-18T13:40:57;8.10;99.90
9167;DHT22;4618;48.818;9.088;2023-11-18T13:43:24;7.90;99.90
9167;DHT22;4618;48.818;9.088;2023-11-18T13:45:52;8.00;99.90
9167;DHT22;4618;48.818;9.088;2023-11-18T13:48:18;7.90;1.00
9167;DHT22;4618;48.818;9.088;2023-11-18T13:50:44;7.80;1.00
9167;DHT22;4618;48.818;9.088;2023-11-18T13:53:10;7.90;1.00
9167;DHT22;4618;48.818;9.088;2023-11-18T13:55:36;7.90;1.00
9167;DHT22;4618;48.818;9.088;2023-11-18T13:58:05;7.90;1.00
9167;DHT22;4618;48.818;9.088;2023-11-18T14:00:31;7.90;1.00
9167;DHT22;4618;48.818;9.088;2023-11-18T14:02:58;7.80;1.00
9167;DHT22;4618;48.818;9.088;2023-11-18T14:05:24;7.80;1.00
9167;DHT22;4618;48.818;9.088;2023-11-18T14:07:52;7.80;1.00
9167;DHT22;4618;48.818;9.088;2023-11-18T14:10:18;7.80;1.00
9167;DHT22;4618;48.818;9.088;2023-11-18T14:13:07;7.80;1.00
9167;DHT22;4618;48.818;9.088;2023-11-18T14:15:34;7.80;1.00
9167;DHT22;4618;48.818;9.088;2023-11-18T14:18:04;7.80;1.00
9167;DHT22;4618;48.818;9.088;2023-11-18T14:20:30;7.80;1.00
9167;DHT22;4618;48.818;9.088;2023-11-18T14:22:57;7.80;1.00
9167;DHT22;4618;48.818;9.088;2023-11-18T14:25:24;7.80;1.00
9167;DHT22;4618;48.818;9.088;2023-11-18T14:27:50;7.80;1.00
9167;DHT22;4618;48.818;9.088;2023-11-18T14:30:16;7.70;1.00
9167;DHT22;4618;48.818;9.088;2023-11-18T14:32:43;7.70;67.00
9167;DHT22;4618;48.818;9.088;2023-11-18T14:35:08;7.70;90.80
9167;DHT22;4618;48.818;9.088;2023-11-18T14:37:38;7.70;99.90
9167;DHT22;4618;48.818;9.088;2023-11-18T14:40:14;7.70;99.90
9167;DHT22;4618;48.818;9.088;2023-11-18T14:42:44;7.80;99.90
9167;DHT22;4618;48.818;9.088;2023-11-18T14:45:13;7.60;99.90
9167;DHT22;4618;48.818;9.088;2023-11-18T14:47:42;7.70;99.90
9167;DHT22;4618;48.818;9.088;2023-11-18T14:50:10;7.70;99.90
9167;DHT22;4618;48.818;9.088;2023-11-18T14:52:46;7.70;4.00
9167;DHT22;4618;48.818;9.088;2023-11-18T14:55:14;7.70;75.90
9167;DHT22;4618;48.818;9.088;2023-11-18T14:57:43;7.70;1.00
9167;DHT22;4618;48.818;9.088;2023-11-18T15:00:10;7.70;1.00
9167;DHT22;4618;48.818;9.088;2023-11-18T15:02:47;7.70;1.00
9167;DHT22;4618;48.818;9.088;2023-11-18T15:05:16;7.70;1.00
9167;DHT22;4618;48.818;9.088;2023-11-18T15:07:55;7.70;23.20
9167;DHT22;4618;48.818;9.088;2023-11-18T15:10:23;7.60;99.90
9167;DHT22;4618;48.818;9.088;2023-11-18T15:12:50;7.70;99.90
9167;DHT22;4618;48.818;9.088;2023-11-18T15:15:24;7.70;99.90
9167;DHT22;4618;48.818;9.088;2023-11-18T15:17:57;7.60;99.90
9167;DHT22;4618;48.818;9.088;2023-11-18T15:20:24;7.60;99.90
9167;DHT22;4618;48.818;9.088;2023-11-18T15:22:50;7.70;99.90
9167;DHT22;4618;48.818;9.088;2023-11-18T15:25:16;7.60;99.90
9167;DHT22;4618;48.818;9.088;2023-11-18T15:27:46;7.60;99.90
9167;DHT22;4618;48.818;9.088;2023-11-18T15:30:15;7.60;99.90
9167;DHT22;4618;48.818;9.088;2023-11-18T15:32:46;7.60;99.90
9167;DHT22;4618;48.818;9.088;2023-11-18T15:35:13;7.60;99.90
9167;DHT22;4618;48.818;9.088;2023-11-18T15:37:41;7.60;99.90
9167;DHT22;4618;48.818;9.088;2023-11-18T15:40:10;7.60;99.90
9167;DHT22;4618;48.818;9.088;2023-11-18T15:42:42;7.50;99.90
9167;DHT22;4618;48.818;9.088;2023-11-18T15:45:09;7.50;1.00
9167;DHT22;4618;48.818;9.088;2023-11-18T15:47:39;7.50;99.90
9167;DHT22;4618;48.818;9.088;2023-11-18T15:50:08;7.50;1.00
9167;DHT22;4618;48.818;9.088;2023-11-18T15:52:41;7.50;1.00
9167;DHT22;4618;48.818;9.088;2023-11-18T15:55:07;7.50;1.00
9167;DHT22;4618;48.818;9.088;2023-11-18T15:57:42;7.50;1.00
9167;DHT22;4618;48.818;9.088;2023-11-18T16:00:10;7.40;1.00
9167;DHT22;4618;48.818;9.088;2023-11-18T16:02:45;7.40;99.90
9167;DHT22;4618;48.818;9.088;2023-11-18T16:05:22;7.40;99.90
9167;DHT22;4618;48.818;9.088;2023-11-18T16:07:49;7.30;99.90
9167;DHT22;4618;48.818;9.088;2023-11-18T16:10:20;7.20;1.00
9167;DHT22;4618;48.818;9.088;2023-11-18T16:12:56;7.20;1.00
9167;DHT22;4618;48.818;9.088;2023-11-18T16:15:24;7.10;99.90
9167;DHT22;4618;48.818;9.088;2023-11-18T16:17:52;7.10;99.90
9167;DHT22;4618;48.818;9.088;2023-11-18T16:20:19;7.10;1.00
9167;DHT22;4618;48.818;9.088;2023-11-18T16:22:47;7.00;1.00
9167;DHT22;4618;48.818;9.088;2023-11-18T16:25:21;7.00;1.00
9167;DHT22;4618;48.818;9.088;2023-11-18T16:27:52;6.90;1.00
9167;DHT22;4618;48.818;9.088;2023-11-18T16:30:21;7.00;1.00
9167;DHT22;4618;48.818;9.088;2023-11-18T16:32:50;7.00;1.00
9167;DHT22;4618;48.818;9.088;2023-11-18T16:35:22;7.10;1.00
9167;DHT22;4618;48.818;9.088;2023-11-18T16:37:48;7.10;99.90
9167;DHT22;4618;48.818;9.088;2023-11-18T16:40:15;7.10;99.90
9167;DHT22;4618;48.818;9.088;2023-11-18T16:42:41;7.20;99.90
9167;DHT22;4618;48.818;9.088;2023-11-18T16:45:07;7.10;1.00
9167;DHT22;4618;48.818;9.088;2023-11-18T16:47:43;7.10;1.00
9167;DHT22;4618;48.818;9.088;2023-11-18T16:50:12;7.20;1.00
9167;DHT22;4618;48.818;9.088;2023-11-18T16:52:38;7.20;99.90
9167;DHT22;4618;48.818;9.088;2023-11-18T16:55:07;7.20;99.90